Time;durP1;ratioP1;P1;durP2;ratioP2;P2;SDS_P1;SDS_P2;PMS_P1;PMS_P2;Temp;Humidity;BMP_temperature;BMP_pressure;BME280_temperature;BME280_humidity;BME280_pressure;Samples;Min_cycle;Max_cycle;Signal;HPM_P1;HPM_P2
2022/01/14 00:00:41;;;;;;;11.77;8.93;;;5.80;1.00;;;;;;5053165;28;20475;-59
2022/01/14 00:03:07;;;;;;;12.73;7.90;;;;;;;;;;5071442;28;20448;-58
2022/01/14 00:05:33;;;;;;;11.50;7.30;;;5.80;1.00;;;;;;5072758;28;20438;-59
2022/01/14 00:07:58;;;;;;;13.47;8.43;;;5.80;1.00;;;;;;5073794;28;20969;-58
2022/01/14 00:10:29;;;;;;;11.63;8.13;;;5.80;1.00;;;;;;5075404;28;20219;-57
2022/01/14 00:13:05;;;;;;;10.73;7.50;;;5.80;1.00;;;;;;5075355;28;20185;-59
2022/01/14 00:15:34;;;;;;;13.30;8.07;;;;;;;;;;5069269;28;20444;-58
2022/01/14 00:18:00;;;;;;;11.60;7.60;;;;;;;;;;5068972;28;20448;-59
2022/01/14 00:20:26;;;;;;;13.80;7.43;;;;;;;;;;5071158;28;20532;-58
2022/01/14 00:22:52;;;;;;;14.73;9.27;;;5.70;1.00;;;;;;5070395;28;20454;-59
2022/01/14 00:33:29;;;;;;;14.90;8.07;;;5.60;1.00;;;;;;5072135;28;20486;-58
2022/01/14 00:35:55;;;;;;;11.00;7.90;;;;;;;;;;5070444;28;20475;-58
2022/01/14 00:38:20;;;;;;;11.60;6.90;;;5.50;1.00;;;;;;5072010;28;20336;-58
2022/01/14 00:40:47;;;;;;;12.47;8.13;;;5.30;1.00;;;;;;5074594;28;20980;-57
2022/01/14 00:43:13;;;;;;;10.27;7.30;;;5.30;1.00;;;;;;5072531;28;20285;-57
2022/01/14 00:45:40;;;;;;;12.77;7.80;;;5.20;1.00;;;;;;5071143;28;20489;-58
2022/01/14 00:48:06;;;;;;;10.80;8.10;;;5.20;1.00;;;;;;5057235;28;20422;-57
2022/01/14 00:50:33;;;;;;;15.17;8.93;;;;;;;;;;5068300;28;20473;-57
2022/01/14 00:52:59;;;;;;;13.70;8.20;;;;;;;;;;5071064;28;20464;-59
2022/01/14 00:55:39;;;;;;;13.30;8.13;;;5.00;1.00;;;;;;5072957;28;20462;-57
2022/01/14 01:00:49;;;;;;;13.50;8.90;;;4.90;1.00;;;;;;5071393;28;20468;-58
2022/01/14 01:03:15;;;;;;;10.37;7.57;;;4.90;1.00;;;;;;5075711;28;20433;-57
2022/01/14 01:05:41;;;;;;;10.77;8.20;;;;;;;;;;5077565;28;20267;-58
2022/01/14 01:08:11;;;;;;;16.97;9.07;;;;;;;;;;5074784;28;20334;-60
2022/01/14 01:10:46;;;;;;;13.20;8.43;;;4.70;1.00;;;;;;5074041;28;20451;-58
2022/01/14 01:13:21;;;;;;;9.77;6.87;;;;;;;;;;5073448;28;20925;-57
2022/01/14 01:15:48;;;;;;;11.17;8.07;;;4.70;1.00;;;;;;5066996;28;20965;-59
2022/01/14 01:18:13;;;;;;;11.63;8.20;;;4.70;1.00;;;;;;5069164;28;20505;-58
2022/01/14 01:20:39;;;;;;;14.50;8.47;;;4.70;1.00;;;;;;5070465;28;20615;-62
2022/01/14 01:23:04;;;;;;;10.67;8.13;;;4.60;1.00;;;;;;5070498;28;20196;-58
2022/01/14 01:25:37;;;;;;;12.27;8.30;;;4.60;1.00;;;;;;5071590;28;20296;-57
2022/01/14 01:28:04;;;;;;;13.53;7.60;;;;;;;;;;5071989;28;20190;-59
2022/01/14 01:32:56;;;;;;;14.20;9.07;;;4.50;1.00;;;;;;5071257;28;20470;-56
2022/01/14 01:35:22;;;;;;;13.90;8.90;;;4.60;1.00;;;;;;5075322;28;20526;-59
2022/01/14 01:37:48;;;;;;;12.77;8.67;;;;;;;;;;5072149;28;20439;-58
2022/01/14 01:40:14;;;;;;;14.30;8.90;;;4.60;1.00;;;;;;5073363;28;20199;-58
2022/01/14 01:42:42;;;;;;;10.40;8.30;;;4.50;1.00;;;;;;5068375;28;20446;-57
2022/01/14 01:45:11;;;;;;;15.93;8.30;;;4.40;1.00;;;;;;5072117;28;20488;-58
2022/01/14 01:47:37;;;;;;;16.17;8.63;;;4.40;1.00;;;;;;5070122;28;20968;-56
2022/01/14 01:50:12;;;;;;;13.53;9.20;;;4.40;1.00;;;;;;5061660;28;20458;-58
2022/01/14 01:52:38;;;;;;;12.07;8.23;;;4.40;1.00;;;;;;5070377;28;20457;-60
2022/01/14 01:55:04;;;;;;;20.40;9.83;;;4.50;1.00;;;;;;5071011;28;20447;-58
2022/01/14 01:57:30;;;;;;;11.70;9.17;;;4.40;1.00;;;;;;5071584;28;20456;-60
2022/01/14 01:59:56;;;;;;;13.03;8.73;;;4.30;1.00;;;;;;5070820;28;20901;-59
2022/01/14 02:02:21;;;;;;;13.77;9.50;;;4.40;1.00;;;;;;5074043;28;20672;-58
2022/01/14 02:04:47;;;;;;;13.80;9.50;;;4.20;1.00;;;;;;5074830;28;20851;-59
2022/01/14 02:07:13;;;;;;;15.87;9.67;;;4.10;1.00;;;;;;5080861;28;20286;-59
2022/01/14 02:09:38;;;;;;;14.67;9.63;;;4.20;1.00;;;;;;5073890;28;20202;-58
2022/01/14 02:12:09;;;;;;;13.17;8.67;;;4.30;1.00;;;;;;5067468;28;20460;-58
2022/01/14 02:22:10;;;;;;;16.97;10.60;;;4.30;1.00;;;;;;5068349;28;20513;-57
2022/01/14 02:22:48;;;;;;;14.70;10.10;;;4.30;1.00;;;;;;5068894;28;20457;-58
2022/01/14 02:25:16;;;;;;;14.90;10.00;;;;;;;;;;5070024;28;20474;-59
2022/01/14 02:27:42;;;;;;;15.80;10.13;;;4.50;1.00;;;;;;5069811;28;20484;-57
2022/01/14 02:30:09;;;;;;;14.20;9.47;;;;;;;;;;5052803;28;20967;-58
2022/01/14 02:32:35;;;;;;;15.67;9.90;;;;;;;;;;5051617;28;20469;-57
2022/01/14 02:35:01;;;;;;;16.83;10.03;;;;;;;;;;5067910;28;20995;-58
2022/01/14 02:37:27;;;;;;;16.90;10.90;;;;;;;;;;5070948;28;20446;-58
2022/01/14 02:39:54;;;;;;;16.57;10.40;;;4.80;1.00;;;;;;5071488;28;21132;-59
2022/01/14 02:42:20;;;;;;;12.73;9.60;;;4.80;1.00;;;;;;5069527;28;20443;-58
2022/01/14 02:44:48;;;;;;;15.83;11.30;;;4.80;1.00;;;;;;5071046;28;20452;-57
2022/01/14 02:47:13;;;;;;;19.00;12.40;;;4.80;1.00;;;;;;5066602;28;20187;-58
2022/01/14 02:49:39;;;;;;;15.80;11.60;;;4.80;1.00;;;;;;5070759;28;20434;-58
2022/01/14 02:52:08;;;;;;;19.50;11.20;;;4.70;1.00;;;;;;5069899;28;20653;-58
2022/01/14 02:55:02;;;;;;;19.83;12.57;;;4.80;1.00;;;;;;5052826;28;20460;-57
2022/01/14 02:57:30;;;;;;;16.27;10.40;;;4.80;1.00;;;;;;5069490;28;20442;-57
2022/01/14 02:59:57;;;;;;;16.80;11.73;;;4.80;1.00;;;;;;5071656;28;20501;-58
2022/01/14 03:02:24;;;;;;;19.20;11.37;;;4.60;1.00;;;;;;5068962;28;20524;-59
2022/01/14 03:04:51;;;;;;;18.00;11.27;;;4.60;1.00;;;;;;5056991;28;20526;-57
2022/01/14 03:07:17;;;;;;;20.63;13.90;;;;;;;;;;5067798;28;20452;-59
2022/01/14 03:09:43;;;;;;;19.20;11.83;;;4.70;1.00;;;;;;5071239;28;20511;-58
2022/01/14 03:12:10;;;;;;;17.53;12.40;;;4.70;1.00;;;;;;5069956;28;20447;-59
2022/01/14 03:14:36;;;;;;;22.17;13.53;;;;;;;;;;5070562;28;20517;-58
2022/01/14 03:17:02;;;;;;;21.53;12.43;;;4.70;1.00;;;;;;5075409;28;20446;-58
2022/01/14 03:19:29;;;;;;;18.07;12.60;;;4.70;1.00;;;;;;5073067;28;20451;-58
2022/01/14 03:22:06;;;;;;;20.37;12.43;;;4.60;1.00;;;;;;5075808;28;20461;-58
2022/01/14 03:27:01;;;;;;;21.13;13.10;;;4.80;1.00;;;;;;5079960;28;20448;-57
2022/01/14 03:29:27;;;;;;;21.30;13.00;;;4.70;1.00;;;;;;5073049;28;20566;-58
2022/01/14 03:31:52;;;;;;;23.70;12.80;;;4.70;1.00;;;;;;5060867;28;20186;-57
2022/01/14 03:34:18;;;;;;;21.60;13.37;;;4.70;1.00;;;;;;5053194;28;20659;-57
2022/01/14 03:36:44;;;;;;;21.53;11.80;;;;;;;;;;5073649;28;21548;-58
2022/01/14 03:39:10;;;;;;;23.33;13.70;;;;;;;;;;5073058;28;20451;-57
2022/01/14 03:41:36;;;;;;;19.37;12.50;;;4.70;1.00;;;;;;5073460;28;20537;-59
2022/01/14 03:44:02;;;;;;;21.10;13.30;;;4.80;1.00;;;;;;5073473;28;21000;-58
2022/01/14 03:46:28;;;;;;;27.73;15.20;;;;;;;;;;5075285;28;20270;-59
2022/01/14 03:48:53;;;;;;;22.27;13.90;;;4.80;1.00;;;;;;5073890;28;20187;-56
2022/01/14 03:51:20;;;;;;;20.63;12.70;;;4.70;1.00;;;;;;5056087;28;20967;-57
2022/01/14 03:53:47;;;;;;;22.93;14.60;;;4.80;1.00;;;;;;5058223;28;20192;-58
2022/01/14 03:56:13;;;;;;;21.03;13.37;;;5.00;1.00;;;;;;5070496;28;20534;-58
2022/01/14 03:58:40;;;;;;;20.90;14.00;;;4.90;1.00;;;;;;5064203;28;21066;-59
2022/01/14 04:01:07;;;;;;;24.50;13.60;;;4.90;1.00;;;;;;5065543;28;20516;-59
2022/01/14 04:03:33;;;;;;;18.00;12.90;;;4.90;1.00;;;;;;5054832;28;20450;-59
2022/01/14 04:05:58;;;;;;;19.40;12.80;;;4.80;1.00;;;;;;5075426;28;20405;-59
2022/01/14 04:08:24;;;;;;;20.03;11.83;;;4.80;1.00;;;;;;5072738;28;20495;-59
2022/01/14 04:10:54;;;;;;;25.27;13.40;;;4.90;1.00;;;;;;5072889;28;20551;-59
2022/01/14 04:13:24;;;;;;;23.33;12.93;;;4.90;1.00;;;;;;5075356;28;20176;-58
2022/01/14 04:15:50;;;;;;;26.67;13.63;;;;;;;;;;5075897;28;20424;-58
2022/01/14 04:18:20;;;;;;;21.03;13.30;;;4.90;1.00;;;;;;5070523;28;20448;-59
2022/01/14 04:20:52;;;;;;;20.33;13.37;;;4.80;1.00;;;;;;5072367;28;20474;-59
2022/01/14 04:23:21;;;;;;;22.33;13.20;;;4.80;1.00;;;;;;5072269;28;20502;-58
2022/01/14 04:25:47;;;;;;;21.57;13.50;;;5.30;1.00;;;;;;5071785;28;21006;-59
2022/01/14 04:28:13;;;;;;;21.33;12.73;;;4.70;1.00;;;;;;5070558;28;20509;-58
2022/01/14 04:30:39;;;;;;;21.07;13.50;;;4.70;1.00;;;;;;5073607;28;20452;-58
2022/01/14 04:33:05;;;;;;;21.00;12.90;;;4.60;1.00;;;;;;5070378;28;20990;-59
2022/01/14 04:35:32;;;;;;;19.57;12.37;;;4.60;1.00;;;;;;5067996;28;20199;-59
2022/01/14 04:37:58;;;;;;;23.00;13.47;;;4.60;1.00;;;;;;5075244;28;20199;-59
2022/01/14 04:40:24;;;;;;;23.13;12.80;;;4.70;1.00;;;;;;5072421;28;20471;-59
2022/01/14 04:42:51;;;;;;;23.43;12.63;;;4.80;1.00;;;;;;5073669;28;20533;-59
2022/01/14 04:47:53;;;;;;;18.30;13.00;;;4.80;1.00;;;;;;5070281;28;20438;-59
2022/01/14 04:50:22;;;;;;;19.00;11.33;;;4.90;1.00;;;;;;5071850;28;20814;-58
2022/01/14 04:52:48;;;;;;;18.40;11.20;;;;;;;;;;5073938;28;20442;-58
2022/01/14 04:55:17;;;;;;;18.83;11.43;;;7.10;1.00;;;;;;5073035;28;20865;-58
2022/01/14 04:57:43;;;;;;;17.27;11.67;;;4.90;1.00;;;;;;5071985;28;20458;-55
2022/01/14 05:00:12;;;;;;;17.80;11.57;;;4.90;1.00;;;;;;5075667;28;20458;-56
2022/01/14 05:02:38;;;;;;;18.60;11.97;;;4.90;1.00;;;;;;5072129;28;20442;-56
2022/01/14 05:05:06;;;;;;;18.80;10.87;;;4.90;1.00;;;;;;5070579;28;20516;-56
2022/01/14 05:07:32;;;;;;;19.20;11.57;;;4.80;1.00;;;;;;5073343;28;20434;-55
2022/01/14 05:10:18;;;;;;;17.70;11.03;;;;;;;;;;5071565;28;20539;-55
2022/01/14 05:12:44;;;;;;;17.03;11.00;;;4.90;1.00;;;;;;5070949;28;20412;-55
2022/01/14 05:15:11;;;;;;;18.23;11.20;;;4.90;1.00;;;;;;5077039;28;20540;-57
2022/01/14 05:17:36;;;;;;;21.30;11.60;;;5.00;1.00;;;;;;5071492;28;20967;-55
2022/01/14 05:20:04;;;;;;;19.23;11.07;;;5.00;1.00;;;;;;5070813;28;20469;-57
2022/01/14 05:22:29;;;;;;;21.63;12.30;;;5.00;1.00;;;;;;5071323;28;20609;-58
2022/01/14 05:24:55;;;;;;;18.97;13.50;;;4.90;1.00;;;;;;5071758;28;20571;-57
2022/01/14 05:27:21;;;;;;;23.50;12.60;;;4.90;1.00;;;;;;5057298;28;20180;-58
2022/01/14 05:29:47;;;;;;;21.30;12.37;;;4.80;1.00;;;;;;5072091;28;20484;-58
2022/01/14 05:32:15;;;;;;;18.40;12.37;;;;;;;;;;5072040;28;20247;-58
2022/01/14 05:34:42;;;;;;;18.30;11.00;;;4.80;1.00;;;;;;5071058;28;20457;-58
2022/01/14 05:37:08;;;;;;;29.17;14.03;;;;;;;;;;5071467;28;20443;-58
2022/01/14 05:39:34;;;;;;;21.97;12.47;;;4.80;1.00;;;;;;5072623;28;20466;-58
2022/01/14 05:42:13;;;;;;;15.60;10.10;;;4.90;1.00;;;;;;5077926;28;20434;-62
2022/01/14 05:44:39;;;;;;;22.57;13.50;;;;;;;;;;5078671;28;20451;-61
2022/01/14 05:47:05;;;;;;;16.50;11.07;;;5.00;1.00;;;;;;5081851;28;20439;-60
2022/01/14 05:49:31;;;;;;;19.20;10.87;;;5.00;1.00;;;;;;5079793;28;20452;-61
2022/01/14 05:51:57;;;;;;;17.43;10.90;;;;;;;;;;5081222;28;20443;-60
2022/01/14 05:54:23;;;;;;;20.60;11.00;;;4.90;1.00;;;;;;5081447;28;20446;-61
2022/01/14 05:56:49;;;;;;;15.43;10.07;;;5.00;1.00;;;;;;5085166;28;20441;-61
2022/01/14 05:59:15;;;;;;;19.40;11.87;;;5.10;1.00;;;;;;5078899;28;20449;-61
2022/01/14 06:01:42;;;;;;;20.87;12.17;;;5.10;1.00;;;;;;5086719;28;20481;-60
2022/01/14 06:04:08;;;;;;;21.70;12.63;;;5.10;1.00;;;;;;5061884;28;20179;-61
2022/01/14 06:06:35;;;;;;;17.63;11.10;;;5.00;1.00;;;;;;5088849;28;20433;-61
2022/01/14 06:09:00;;;;;;;21.97;12.40;;;5.00;1.00;;;;;;5080018;28;20240;-61
2022/01/14 06:11:27;;;;;;;18.50;12.50;;;4.80;1.00;;;;;;5075405;28;20533;-61
2022/01/14 06:13:53;;;;;;;18.00;11.80;;;4.80;1.00;;;;;;5079855;28;20953;-61
2022/01/14 06:16:19;;;;;;;20.27;13.10;;;4.90;1.00;;;;;;5058929;28;20450;-61
2022/01/14 06:18:45;;;;;;;21.30;12.03;;;4.70;1.00;;;;;;5080839;28;20458;-61
2022/01/14 06:21:11;;;;;;;19.33;11.63;;;;;;;;;;5073954;28;20211;-60
2022/01/14 06:23:37;;;;;;;23.97;14.80;;;;;;;;;;5078545;28;20827;-61
2022/01/14 06:26:04;;;;;;;22.80;14.00;;;4.50;1.00;;;;;;5082774;28;20449;-61
2022/01/14 06:28:30;;;;;;;27.93;14.20;;;;;;;;;;5081576;28;20481;-61
2022/01/14 06:30:55;;;;;;;26.27;16.00;;;4.50;1.00;;;;;;5078968;28;20444;-62
2022/01/14 06:33:22;;;;;;;26.10;15.30;;;4.40;1.00;;;;;;5080917;28;20530;-61
2022/01/14 06:35:49;;;;;;;27.93;16.07;;;;;;;;;;5073930;28;20264;-61
2022/01/14 06:38:16;;;;;;;34.90;16.73;;;4.70;1.00;;;;;;5084886;28;20455;-61
2022/01/14 06:40:42;;;;;;;30.10;15.43;;;4.60;1.00;;;;;;5082088;28;20967;-61
2022/01/14 06:43:07;;;;;;;24.80;16.07;;;;;;;;;;5078344;28;20469;-62
2022/01/14 06:45:33;;;;;;;32.40;17.90;;;4.50;1.00;;;;;;5080129;28;20195;-60
2022/01/14 06:47:59;;;;;;;31.63;15.43;;;4.50;1.00;;;;;;5078539;28;20811;-61
2022/01/14 06:50:25;;;;;;;25.93;16.43;;;4.40;1.00;;;;;;5081316;28;20247;-65
2022/01/14 06:52:50;;;;;;;27.27;15.80;;;4.40;1.00;;;;;;5082411;28;20440;-62
2022/01/14 06:55:16;;;;;;;28.80;16.27;;;4.30;1.00;;;;;;5083385;28;20202;-61
2022/01/14 06:57:42;;;;;;;27.67;15.40;;;4.30;1.00;;;;;;5080770;28;20292;-62
2022/01/14 07:00:14;;;;;;;33.33;16.47;;;4.10;1.00;;;;;;5077578;28;20244;-60
2022/01/14 07:02:40;;;;;;;22.57;12.97;;;4.20;1.00;;;;;;5084580;28;20178;-62
2022/01/14 07:05:06;;;;;;;33.07;18.27;;;;;;;;;;5083880;28;20465;-61
2022/01/14 07:07:32;;;;;;;31.80;17.30;;;4.20;1.00;;;;;;5079391;28;20445;-61
2022/01/14 07:09:58;;;;;;;29.10;15.40;;;4.20;1.00;;;;;;5075907;28;20929;-61
2022/01/14 07:12:30;;;;;;;31.07;16.40;;;4.10;1.00;;;;;;5085098;28;20943;-60
2022/01/14 07:14:59;;;;;;;28.63;15.30;;;4.10;1.00;;;;;;5077653;28;20934;-61
2022/01/14 07:17:26;;;;;;;25.30;14.80;;;4.10;1.00;;;;;;5064016;28;20442;-62
2022/01/14 07:19:54;;;;;;;22.17;14.53;;;;;;;;;;5081542;28;20761;-60
2022/01/14 07:22:21;;;;;;;27.73;16.43;;;4.00;1.00;;;;;;5079794;28;20472;-62
2022/01/14 07:24:46;;;;;;;24.67;14.63;;;4.00;1.00;;;;;;5084393;28;20488;-62
2022/01/14 07:27:12;;;;;;;28.07;17.00;;;4.00;1.00;;;;;;5081291;28;20448;-61
2022/01/14 07:29:38;;;;;;;26.00;14.37;;;;;;;;;;5073086;28;20183;-61
2022/01/14 07:32:05;;;;;;;23.60;14.33;;;;;;;;;;5075626;28;20442;-61
2022/01/14 07:34:32;;;;;;;24.77;14.40;;;4.20;1.00;;;;;;5090008;28;20779;-61
2022/01/14 07:36:58;;;;;;;25.23;14.30;;;;;;;;;;5085287;28;20436;-61
2022/01/14 07:39:23;;;;;;;26.40;13.80;;;4.10;1.00;;;;;;5081795;28;20473;-61
2022/01/14 07:41:50;;;;;;;22.67;14.23;;;4.30;1.00;;;;;;5081912;28;20500;-57
2022/01/14 07:44:16;;;;;;;22.20;13.63;;;4.40;1.00;;;;;;5079412;28;20183;-57
2022/01/14 07:46:42;;;;;;;23.97;12.57;;;;;;;;;;5083990;28;20433;-60
2022/01/14 07:49:08;;;;;;;21.77;12.40;;;4.40;1.00;;;;;;5084670;28;20479;-59
2022/01/14 07:51:34;;;;;;;19.63;11.40;;;4.40;1.00;;;;;;5085193;28;20438;-59
2022/01/14 07:54:05;;;;;;;19.67;10.73;;;4.40;1.00;;;;;;5085473;28;20444;-59
2022/01/14 07:56:32;;;;;;;26.37;11.77;;;4.50;1.00;;;;;;5079207;28;20537;-59
2022/01/14 07:58:59;;;;;;;20.80;11.60;;;;;;;;;;5078386;28;20490;-59
2022/01/14 08:01:25;;;;;;;13.50;9.50;;;4.50;1.00;;;;;;5083113;28;20480;-60
2022/01/14 08:03:50;;;;;;;15.47;10.00;;;4.40;1.00;;;;;;5085551;28;20450;-60
2022/01/14 08:06:17;;;;;;;18.40;10.97;;;;;;;;;;5085736;28;20444;-60
2022/01/14 08:08:43;;;;;;;17.20;9.43;;;;;;;;;;5086410;28;20175;-59
2022/01/14 08:11:09;;;;;;;17.33;11.03;;;4.60;1.00;;;;;;5081257;28;20448;-59
2022/01/14 08:13:35;;;;;;;17.67;10.57;;;;;;;;;;5081024;28;20920;-59
2022/01/14 08:16:00;;;;;;;19.20;10.47;;;4.60;1.00;;;;;;5064019;28;20179;-59
2022/01/14 08:18:26;;;;;;;19.13;10.83;;;4.70;1.00;;;;;;5086090;28;20756;-59
2022/01/14 08:20:52;;;;;;;17.20;10.30;;;4.60;1.00;;;;;;5089862;28;20207;-58
2022/01/14 08:23:19;;;;;;;16.40;11.30;;;4.70;1.00;;;;;;5084053;28;20203;-59
2022/01/14 08:25:45;;;;;;;14.67;8.80;;;;;;;;;;5085348;28;20472;-58
2022/01/14 08:28:10;;;;;;;16.40;10.60;;;4.60;1.00;;;;;;5082590;28;20441;-60
2022/01/14 08:30:36;;;;;;;15.47;9.50;;;4.50;1.00;;;;;;5080348;28;20979;-59
2022/01/14 08:33:02;;;;;;;16.30;10.07;;;4.60;1.00;;;;;;5068603;28;20307;-60
2022/01/14 08:35:29;;;;;;;14.87;9.13;;;;;;;;;;5082693;28;20533;-58
2022/01/14 08:37:55;;;;;;;16.33;9.77;;;4.60;1.00;;;;;;5078957;28;20445;-59
2022/01/14 08:40:21;;;;;;;17.00;11.00;;;4.70;1.00;;;;;;5088014;28;20463;-59
2022/01/14 08:42:52;;;;;;;15.37;8.60;;;4.90;1.00;;;;;;5079991;28;20561;-59
2022/01/14 08:45:21;;;;;;;17.90;10.03;;;5.00;1.00;;;;;;5083642;28;20434;-59
2022/01/14 08:47:47;;;;;;;18.07;9.17;;;;;;;;;;5088326;28;20525;-60
2022/01/14 08:50:13;;;;;;;14.63;9.50;;;;;;;;;;5079163;28;20806;-58
2022/01/14 08:52:39;;;;;;;14.10;9.73;;;;;;;;;;5082023;28;20417;-58
2022/01/14 08:55:05;;;;;;;13.70;8.60;;;5.40;1.00;;;;;;5079283;28;20450;-58
2022/01/14 08:57:31;;;;;;;12.90;7.93;;;;;;;;;;5086165;28;20525;-59
2022/01/14 08:59:57;;;;;;;12.70;7.20;;;;;;;;;;5071213;28;20478;-58
2022/01/14 09:02:22;;;;;;;13.00;7.90;;;5.50;1.00;;;;;;5084220;28;20448;-59
2022/01/14 09:04:48;;;;;;;8.40;6.27;;;5.40;1.00;;;;;;5087522;28;20441;-58
2022/01/14 09:07:13;;;;;;;13.77;7.80;;;5.40;1.00;;;;;;5059465;28;20178;-60
2022/01/14 09:09:39;;;;;;;12.33;7.50;;;5.30;1.00;;;;;;5082714;28;20175;-59
2022/01/14 09:12:05;;;;;;;13.50;8.30;;;;;;;;;;5078313;28;20550;-59
2022/01/14 09:14:31;;;;;;;17.90;9.23;;;;;;;;;;5079267;28;20227;-59
2022/01/14 09:16:58;;;;;;;17.43;10.00;;;5.10;1.00;;;;;;5080432;28;20538;-61
2022/01/14 09:19:24;;;;;;;12.17;8.77;;;5.00;1.00;;;;;;5074174;28;20504;-60
2022/01/14 09:21:50;;;;;;;19.53;10.20;;;5.00;1.00;;;;;;5088188;28;20465;-60
2022/01/14 09:24:15;;;;;;;19.57;10.40;;;5.00;1.00;;;;;;5078483;28;20233;-60
2022/01/14 09:26:41;;;;;;;19.20;11.23;;;5.10;1.00;;;;;;5072461;28;20195;-60
2022/01/14 09:29:07;;;;;;;22.00;12.73;;;4.80;1.00;;;;;;5074542;28;20510;-60
2022/01/14 09:31:34;;;;;;;24.57;13.00;;;4.70;1.00;;;;;;5079955;28;20565;-60
2022/01/14 09:33:59;;;;;;;25.20;14.50;;;4.80;1.00;;;;;;5078287;28;20512;-60
2022/01/14 09:36:25;;;;;;;21.37;13.33;;;4.70;1.00;;;;;;5084484;28;20790;-59
2022/01/14 09:38:50;;;;;;;27.43;15.60;;;4.60;1.00;;;;;;5082302;28;20183;-59
2022/01/14 09:41:17;;;;;;;23.33;14.10;;;4.60;1.00;;;;;;5077663;28;20204;-59
2022/01/14 09:43:43;;;;;;;25.97;15.70;;;4.60;1.00;;;;;;5077480;28;20176;-59
2022/01/14 09:46:10;;;;;;;21.90;14.27;;;;;;;;;;5078807;28;20979;-58
2022/01/14 09:48:37;;;;;;;23.27;13.73;;;4.60;1.00;;;;;;5074409;28;20491;-59
2022/01/14 09:51:04;;;;;;;24.20;15.50;;;4.70;1.00;;;;;;5066824;28;20487;-59
2022/01/14 09:53:31;;;;;;;26.13;17.00;;;4.70;1.00;;;;;;5081273;28;20459;-59
2022/01/14 09:55:57;;;;;;;30.60;15.47;;;4.90;1.00;;;;;;5077720;28;20542;-60
2022/01/14 09:58:24;;;;;;;26.47;14.77;;;4.80;1.00;;;;;;5078723;28;20453;-59
2022/01/14 10:00:50;;;;;;;32.03;16.63;;;4.60;1.00;;;;;;5080470;28;20472;-60
2022/01/14 10:03:25;;;;;;;27.30;17.00;;;4.70;1.00;;;;;;5083856;28;20436;-59
2022/01/14 10:05:56;;;;;;;20.07;13.50;;;4.70;1.00;;;;;;5080323;28;20503;-59
2022/01/14 10:08:27;;;;;;;28.50;15.80;;;4.40;1.00;;;;;;5078038;28;20437;-59
2022/01/14 10:10:59;;;;;;;23.53;13.50;;;4.50;1.00;;;;;;5061041;28;20446;-59
2022/01/14 10:13:28;;;;;;;28.53;17.67;;;4.40;1.00;;;;;;5074920;28;20463;-60
2022/01/14 10:16:01;;;;;;;28.90;16.60;;;4.40;1.00;;;;;;5076415;28;20798;-59
2022/01/14 10:18:27;;;;;;;25.80;16.53;;;;;;;;;;5079551;28;20441;-59
2022/01/14 10:21:01;;;;;;;21.27;14.07;;;4.30;1.00;;;;;;5080234;28;20778;-59
2022/01/14 10:23:38;;;;;;;26.70;16.90;;;;;;;;;;5075078;28;20563;-59
2022/01/14 10:26:04;;;;;;;24.67;16.27;;;4.30;1.00;;;;;;5078031;28;20436;-59
2022/01/14 10:28:30;;;;;;;26.43;15.40;;;4.20;1.00;;;;;;5088254;28;20435;-58
2022/01/14 10:30:56;;;;;;;32.00;17.33;;;4.20;1.00;;;;;;5079586;28;20492;-59
2022/01/14 10:33:26;;;;;;;31.93;17.90;;;4.20;1.00;;;;;;5062048;28;20241;-59
2022/01/14 10:35:52;;;;;;;27.33;16.90;;;;;;;;;;5082370;28;20463;-59
2022/01/14 10:38:22;;;;;;;21.47;14.67;;;4.20;1.00;;;;;;5078643;28;20495;-59
2022/01/14 10:40:51;;;;;;;27.97;17.50;;;4.30;1.00;;;;;;5086361;28;20507;-59
2022/01/14 10:43:21;;;;;;;30.07;18.50;;;4.30;1.00;;;;;;5069968;28;20521;-59
2022/01/14 10:45:48;;;;;;;29.80;17.63;;;4.30;1.00;;;;;;5068108;28;20411;-59
2022/01/14 10:48:17;;;;;;;32.33;17.03;;;4.20;1.00;;;;;;5073966;28;20953;-59
2022/01/14 10:50:52;;;;;;;29.73;19.40;;;4.40;1.00;;;;;;5071611;28;20441;-59
2022/01/14 10:53:23;;;;;;;29.40;18.03;;;4.40;1.00;;;;;;5080307;28;20461;-59
2022/01/14 10:55:52;;;;;;;26.27;15.43;;;4.40;1.00;;;;;;5082552;28;20440;-59
2022/01/14 10:58:25;;;;;;;29.10;16.00;;;4.30;1.00;;;;;;5074524;28;20827;-59
2022/01/14 11:00:57;;;;;;;28.60;16.73;;;4.40;1.00;;;;;;5077071;28;20474;-59
2022/01/14 11:03:40;;;;;;;32.77;17.43;;;4.50;1.00;;;;;;5063107;28;20449;-59
2022/01/14 11:06:16;;;;;;;29.30;16.97;;;4.50;1.00;;;;;;5079687;28;20534;-59
2022/01/14 11:08:41;;;;;;;32.83;16.67;;;4.50;1.00;;;;;;5060136;28;20445;-59
2022/01/14 11:11:07;;;;;;;35.43;18.80;;;;;;;;;;5076619;28;20543;-59
2022/01/14 11:13:34;;;;;;;26.17;16.20;;;4.60;1.00;;;;;;5068970;28;20604;-59
2022/01/14 11:15:59;;;;;;;26.17;16.00;;;4.70;1.00;;;;;;5069257;28;20520;-59
2022/01/14 11:18:25;;;;;;;27.33;16.60;;;4.70;1.00;;;;;;5067486;28;20544;-59
2022/01/14 11:23:35;;;;;;;26.30;18.17;;;4.70;1.00;;;;;;5065390;28;20515;-59
2022/01/14 11:26:08;;;;;;;29.50;17.47;;;4.70;1.00;;;;;;5069738;28;20480;-58
2022/01/14 11:28:36;;;;;;;27.37;16.73;;;4.70;1.00;;;;;;5068496;28;20253;-60
2022/01/14 11:31:31;;;;;;;30.40;17.40;;;4.70;1.00;;;;;;5072816;28;20431;-61
2022/01/14 11:37:33;;;;;;;26.13;16.23;;;4.90;1.00;;;;;;4984250;28;20442;-62
2022/01/14 11:40:03;;;;;;;27.73;15.93;;;5.00;1.00;;;;;;5022574;28;20491;-61
2022/01/14 11:42:42;;;;;;;33.77;19.40;;;5.00;1.00;;;;;;5074445;28;20503;-61
2022/01/14 11:45:13;;;;;;;29.37;14.67;;;5.00;1.00;;;;;;5071525;28;20780;-60
2022/01/14 11:47:41;;;;;;;30.00;17.43;;;;;;;;;;5068941;28;20439;-60
2022/01/14 11:50:30;;;;;;;26.60;14.80;;;4.90;1.00;;;;;;5071914;28;20446;-61
2022/01/14 11:52:58;;;;;;;31.53;17.50;;;4.90;1.00;;;;;;5071436;28;20445;-61
2022/01/14 11:55:23;;;;;;;31.97;16.73;;;5.00;1.00;;;;;;5071914;28;20437;-61
2022/01/14 11:58:00;;;;;;;31.37;17.10;;;5.00;1.00;;;;;;5071406;28;20543;-61
2022/01/14 12:00:25;;;;;;;28.30;16.40;;;5.10;1.00;;;;;;5071451;28;20265;-63
2022/01/14 12:02:53;;;;;;;31.20;15.57;;;5.30;1.00;;;;;;5071380;28;20431;-59
2022/01/14 12:05:27;;;;;;;31.00;17.63;;;5.10;1.00;;;;;;5067652;28;20569;-61
2022/01/14 12:08:01;;;;;;;36.40;19.13;;;5.20;1.00;;;;;;5071932;28;20434;-60
2022/01/14 12:10:38;;;;;;;29.63;16.80;;;5.10;1.00;;;;;;5071805;28;20446;-61
2022/01/14 12:13:22;;;;;;;29.47;17.40;;;5.30;1.00;;;;;;5070987;28;20921;-60
2022/01/14 12:16:01;;;;;;;34.93;18.27;;;5.20;1.00;;;;;;5077174;28;20446;-61
2022/01/14 12:18:45;;;;;;;32.80;18.20;;;5.20;1.00;;;;;;5089319;28;20495;-60
2022/01/14 12:21:12;;;;;;;30.30;18.00;;;5.10;1.00;;;;;;5090071;28;20473;-61
2022/01/14 12:23:38;;;;;;;29.60;18.73;;;;;;;;;;5092169;28;20803;-61
2022/01/14 12:26:15;;;;;;;33.87;16.90;;;5.20;1.00;;;;;;5091871;28;20446;-60
2022/01/14 12:28:42;;;;;;;34.33;16.60;;;5.20;1.00;;;;;;5092277;28;20448;-60
2022/01/14 12:31:08;;;;;;;34.33;18.50;;;5.30;1.00;;;;;;5081998;28;20495;-60
2022/01/14 12:33:46;;;;;;;31.40;18.43;;;5.30;1.00;;;;;;5080512;28;20455;-60
2022/01/14 12:36:16;;;;;;;26.60;17.03;;;5.20;1.00;;;;;;5071491;28;20478;-59
2022/01/14 12:38:43;;;;;;;33.13;18.17;;;5.40;1.00;;;;;;5071426;28;20435;-60
2022/01/14 12:41:16;;;;;;;31.47;18.10;;;5.50;1.00;;;;;;5071331;28;20476;-60
2022/01/14 12:43:52;;;;;;;27.03;17.40;;;5.50;1.00;;;;;;5071462;28;20519;-61
2022/01/14 12:49:10;;;;;;;28.00;17.70;;;5.60;1.00;;;;;;5071991;28;20459;-60
2022/01/14 12:51:37;;;;;;;31.53;18.40;;;5.70;1.00;;;;;;5081164;28;20876;-61
2022/01/14 12:54:05;;;;;;;27.30;17.37;;;5.60;1.00;;;;;;5072845;28;20586;-60
2022/01/14 12:56:32;;;;;;;25.77;15.73;;;5.40;1.00;;;;;;5059357;28;20506;-59
2022/01/14 12:59:15;;;;;;;34.77;18.00;;;5.40;1.00;;;;;;5083900;28;20443;-61
2022/01/14 13:01:49;;;;;;;30.20;18.87;;;5.40;1.00;;;;;;5070731;28;20465;-60
2022/01/14 13:04:17;;;;;;;28.90;17.30;;;5.50;1.00;;;;;;5071428;28;20518;-61
2022/01/14 13:06:57;;;;;;;31.87;19.43;;;5.50;1.00;;;;;;5071019;28;20803;-60
2022/01/14 13:09:30;;;;;;;32.57;17.33;;;5.30;1.00;;;;;;5070803;28;20497;-60
2022/01/14 13:11:58;;;;;;;38.70;19.80;;;5.40;1.00;;;;;;5077547;28;20754;-60
2022/01/14 13:14:40;;;;;;;34.40;19.93;;;5.40;1.00;;;;;;5082558;28;20439;-60
2022/01/14 13:17:12;;;;;;;32.90;18.63;;;5.30;1.00;;;;;;5096939;28;20499;-60
2022/01/14 13:19:39;;;;;;;34.77;19.70;;;5.30;1.00;;;;;;5079231;28;20436;-60
2022/01/14 13:22:12;;;;;;;41.50;19.83;;;5.40;1.00;;;;;;5068665;28;20465;-60
2022/01/14 13:24:40;;;;;;;33.50;18.23;;;5.40;1.00;;;;;;5087728;28;20486;-60
2022/01/14 13:27:23;;;;;;;35.70;21.40;;;5.40;1.00;;;;;;5077444;28;20461;-60
2022/01/14 13:29:58;;;;;;;33.20;20.83;;;5.50;1.00;;;;;;5077404;28;20506;-60
2022/01/14 13:32:35;;;;;;;37.83;20.93;;;5.30;1.00;;;;;;5080028;28;20443;-61
2022/01/14 13:35:14;;;;;;;28.93;18.00;;;5.30;1.00;;;;;;5064214;28;20943;-61
2022/01/14 13:37:42;;;;;;;31.87;19.63;;;5.30;1.00;;;;;;5077584;28;20430;-61
2022/01/14 13:40:16;;;;;;;35.90;20.97;;;5.30;1.00;;;;;;5089174;28;20433;-61
2022/01/14 13:42:45;;;;;;;39.07;23.20;;;5.40;1.00;;;;;;5084734;28;20459;-62